sensor_id;sensor_type;location;lat;lon;timestamp;P1;durP1;ratioP1;P2;durP2;ratioP2
70825;SDS011;58446;41.490;22.098;2022-11-30T00:00:56;113.03;;;60.30;;
70825;SDS011;58446;41.490;22.098;2022-11-30T00:03:22;109.22;;;60.80;;
70825;SDS011;58446;41.490;22.098;2022-11-30T00:05:49;117.20;;;62.83;;
70825;SDS011;58446;41.490;22.098;2022-11-30T00:08:14;119.47;;;66.33;;
70825;SDS011;58446;41.490;22.098;2022-11-30T00:10:40;129.65;;;69.07;;
70825;SDS011;58446;41.490;22.098;2022-11-30T00:13:07;134.13;;;71.72;;
70825;SDS011;58446;41.490;22.098;2022-11-30T00:15:34;125.65;;;66.85;;
70825;SDS011;58446;41.490;22.098;2022-11-30T00:18:03;112.37;;;63.40;;
70825;SDS011;58446;41.490;22.098;2022-11-30T00:20:29;124.35;;;68.63;;
70825;SDS011;58446;41.490;22.098;2022-11-30T00:22:55;123.45;;;67.55;;
70825;SDS011;58446;41.490;22.098;2022-11-30T00:25:22;125.60;;;69.07;;
70825;SDS011;58446;41.490;22.098;2022-11-30T00:27:48;117.22;;;64.88;;
70825;SDS011;58446;41.490;22.098;2022-11-30T00:30:14;121.50;;;65.75;;
70825;SDS011;58446;41.490;22.098;2022-11-30T00:32:39;113.50;;;64.37;;
70825;SDS011;58446;41.490;22.098;2022-11-30T00:35:05;112.07;;;62.40;;
70825;SDS011;58446;41.490;22.098;2022-11-30T00:37:32;104.97;;;61.97;;
70825;SDS011;58446;41.490;22.098;2022-11-30T00:39:58;103.18;;;58.38;;
70825;SDS011;58446;41.490;22.098;2022-11-30T00:42:24;91.90;;;54.78;;
70825;SDS011;58446;41.490;22.098;2022-11-30T00:44:50;91.33;;;50.67;;
70825;SDS011;58446;41.490;22.098;2022-11-30T00:47:15;78.65;;;46.03;;
70825;SDS011;58446;41.490;22.098;2022-11-30T00:49:41;85.37;;;48.73;;
70825;SDS011;58446;41.490;22.098;2022-11-30T00:52:07;86.07;;;49.53;;
70825;SDS011;58446;41.490;22.098;2022-11-30T00:54:32;80.90;;;48.60;;
70825;SDS011;58446;41.490;22.098;2022-11-30T00:56:58;83.33;;;48.87;;
70825;SDS011;58446;41.490;22.098;2022-11-30T00:59:23;92.85;;;52.45;;
70825;SDS011;58446;41.490;22.098;2022-11-30T01:01:49;98.30;;;56.50;;
70825;SDS011;58446;41.490;22.098;2022-11-30T01:04:17;115.15;;;65.93;;
70825;SDS011;58446;41.490;22.098;2022-11-30T01:06:43;96.13;;;55.07;;
70825;SDS011;58446;41.490;22.098;2022-11-30T01:09:08;87.05;;;51.17;;
70825;SDS011;58446;41.490;22.098;2022-11-30T01:11:34;90.00;;;51.97;;
70825;SDS011;58446;41.490;22.098;2022-11-30T01:14:00;86.13;;;49.50;;
70825;SDS011;58446;41.490;22.098;2022-11-30T01:16:27;84.37;;;49.50;;
70825;SDS011;58446;41.490;22.098;2022-11-30T01:18:55;89.13;;;50.72;;
70825;SDS011;58446;41.490;22.098;2022-11-30T01:21:22;83.10;;;49.30;;
70825;SDS011;58446;41.490;22.098;2022-11-30T01:23:50;77.90;;;48.05;;
70825;SDS011;58446;41.490;22.098;2022-11-30T01:26:16;75.93;;;45.10;;
70825;SDS011;58446;41.490;22.098;2022-11-30T01:28:43;72.82;;;44.30;;
70825;SDS011;58446;41.490;22.098;2022-11-30T01:31:13;75.00;;;42.80;;
70825;SDS011;58446;41.490;22.098;2022-11-30T01:33:39;69.13;;;40.45;;
70825;SDS011;58446;41.490;22.098;2022-11-30T01:36:07;65.65;;;39.00;;
70825;SDS011;58446;41.490;22.098;2022-11-30T01:38:42;56.23;;;34.77;;
70825;SDS011;58446;41.490;22.098;2022-11-30T01:41:13;57.38;;;35.83;;
70825;SDS011;58446;41.490;22.098;2022-11-30T01:48:47;73.95;;;43.47;;
70825;SDS011;58446;41.490;22.098;2022-11-30T01:51:30;59.80;;;36.10;;
70825;SDS011;58446;41.490;22.098;2022-11-30T01:54:02;58.75;;;34.67;;
70825;SDS011;58446;41.490;22.098;2022-11-30T01:56:31;55.17;;;32.90;;
70825;SDS011;58446;41.490;22.098;2022-11-30T01:58:56;50.20;;;30.48;;
70825;SDS011;58446;41.490;22.098;2022-11-30T02:01:22;52.40;;;29.83;;
70825;SDS011;58446;41.490;22.098;2022-11-30T02:03:54;55.47;;;32.83;;
70825;SDS011;58446;41.490;22.098;2022-11-30T02:06:26;46.08;;;28.80;;
70825;SDS011;58446;41.490;22.098;2022-11-30T02:08:52;50.10;;;28.52;;
70825;SDS011;58446;41.490;22.098;2022-11-30T02:11:19;45.87;;;29.57;;
70825;SDS011;58446;41.490;22.098;2022-11-30T02:16:29;49.53;;;29.42;;
70825;SDS011;58446;41.490;22.098;2022-11-30T02:19:21;46.10;;;28.77;;
70825;SDS011;58446;41.490;22.098;2022-11-30T02:27:57;47.40;;;27.90;;
70825;SDS011;58446;41.490;22.098;2022-11-30T02:30:36;50.13;;;28.92;;
70825;SDS011;58446;41.490;22.098;2022-11-30T02:33:09;48.50;;;28.83;;
70825;SDS011;58446;41.490;22.098;2022-11-30T02:35:39;46.33;;;27.98;;
70825;SDS011;58446;41.490;22.098;2022-11-30T02:38:08;51.80;;;32.30;;
70825;SDS011;58446;41.490;22.098;2022-11-30T02:40:35;49.20;;;28.90;;
70825;SDS011;58446;41.490;22.098;2022-11-30T02:43:01;48.95;;;29.17;;
70825;SDS011;58446;41.490;22.098;2022-11-30T02:45:30;46.27;;;28.77;;
70825;SDS011;58446;41.490;22.098;2022-11-30T02:48:09;48.75;;;29.95;;
70825;SDS011;58446;41.490;22.098;2022-11-30T02:50:49;51.05;;;32.90;;
70825;SDS011;58446;41.490;22.098;2022-11-30T02:53:20;53.42;;;31.13;;
70825;SDS011;58446;41.490;22.098;2022-11-30T02:55:46;53.75;;;32.60;;
70825;SDS011;58446;41.490;22.098;2022-11-30T02:58:12;50.93;;;32.93;;
70825;SDS011;58446;41.490;22.098;2022-11-30T03:00:39;55.95;;;32.92;;
70825;SDS011;58446;41.490;22.098;2022-11-30T03:03:05;55.63;;;32.63;;
70825;SDS011;58446;41.490;22.098;2022-11-30T03:05:31;53.90;;;33.85;;
70825;SDS011;58446;41.490;22.098;2022-11-30T03:07:57;54.40;;;34.13;;
70825;SDS011;58446;41.490;22.098;2022-11-30T03:10:22;54.00;;;33.70;;
70825;SDS011;58446;41.490;22.098;2022-11-30T03:12:48;49.13;;;30.37;;
70825;SDS011;58446;41.490;22.098;2022-11-30T03:15:14;51.15;;;29.92;;
70825;SDS011;58446;41.490;22.098;2022-11-30T03:17:39;48.43;;;28.83;;
70825;SDS011;58446;41.490;22.098;2022-11-30T03:20:05;46.17;;;29.25;;
70825;SDS011;58446;41.490;22.098;2022-11-30T03:22:31;49.07;;;30.03;;
70825;SDS011;58446;41.490;22.098;2022-11-30T03:24:57;48.47;;;30.15;;
70825;SDS011;58446;41.490;22.098;2022-11-30T03:27:22;44.53;;;27.43;;
70825;SDS011;58446;41.490;22.098;2022-11-30T03:29:48;44.67;;;27.63;;
70825;SDS011;58446;41.490;22.098;2022-11-30T03:32:14;49.90;;;30.73;;
70825;SDS011;58446;41.490;22.098;2022-11-30T03:34:39;43.58;;;27.83;;
70825;SDS011;58446;41.490;22.098;2022-11-30T03:37:05;43.83;;;27.67;;
70825;SDS011;58446;41.490;22.098;2022-11-30T03:39:31;48.78;;;29.27;;
70825;SDS011;58446;41.490;22.098;2022-11-30T03:41:56;45.27;;;28.63;;
70825;SDS011;58446;41.490;22.098;2022-11-30T03:44:22;40.35;;;27.67;;
70825;SDS011;58446;41.490;22.098;2022-11-30T03:46:48;48.43;;;28.60;;
70825;SDS011;58446;41.490;22.098;2022-11-30T03:49:13;45.83;;;28.20;;
70825;SDS011;58446;41.490;22.098;2022-11-30T03:51:39;51.17;;;32.17;;
70825;SDS011;58446;41.490;22.098;2022-11-30T03:54:04;46.60;;;28.17;;
70825;SDS011;58446;41.490;22.098;2022-11-30T03:56:30;45.33;;;30.08;;
70825;SDS011;58446;41.490;22.098;2022-11-30T03:58:56;48.13;;;29.10;;
70825;SDS011;58446;41.490;22.098;2022-11-30T04:01:22;52.17;;;31.88;;
70825;SDS011;58446;41.490;22.098;2022-11-30T04:03:48;51.33;;;32.22;;
70825;SDS011;58446;41.490;22.098;2022-11-30T04:06:15;53.27;;;31.90;;
70825;SDS011;58446;41.490;22.098;2022-11-30T04:08:42;51.40;;;32.28;;
70825;SDS011;58446;41.490;22.098;2022-11-30T04:11:08;52.80;;;32.65;;
70825;SDS011;58446;41.490;22.098;2022-11-30T04:13:35;52.80;;;32.22;;
70825;SDS011;58446;41.490;22.098;2022-11-30T04:16:02;51.83;;;31.83;;
70825;SDS011;58446;41.490;22.098;2022-11-30T04:18:29;49.90;;;31.13;;
70825;SDS011;58446;41.490;22.098;2022-11-30T04:20:56;50.63;;;30.77;;
70825;SDS011;58446;41.490;22.098;2022-11-30T04:23:23;49.97;;;31.25;;
70825;SDS011;58446;41.490;22.098;2022-11-30T04:25:50;48.85;;;30.13;;
70825;SDS011;58446;41.490;22.098;2022-11-30T04:28:16;48.20;;;30.20;;
70825;SDS011;58446;41.490;22.098;2022-11-30T04:30:43;53.15;;;31.90;;
70825;SDS011;58446;41.490;22.098;2022-11-30T04:33:10;54.63;;;33.15;;
70825;SDS011;58446;41.490;22.098;2022-11-30T04:35:38;47.75;;;30.08;;
70825;SDS011;58446;41.490;22.098;2022-11-30T04:38:09;46.40;;;28.08;;
70825;SDS011;58446;41.490;22.098;2022-11-30T04:40:42;48.30;;;29.00;;
70825;SDS011;58446;41.490;22.098;2022-11-30T04:43:08;51.92;;;32.42;;
70825;SDS011;58446;41.490;22.098;2022-11-30T04:45:34;53.78;;;33.10;;
70825;SDS011;58446;41.490;22.098;2022-11-30T04:48:01;52.38;;;33.58;;
70825;SDS011;58446;41.490;22.098;2022-11-30T04:50:27;55.88;;;33.75;;
70825;SDS011;58446;41.490;22.098;2022-11-30T04:52:53;59.33;;;33.23;;
70825;SDS011;58446;41.490;22.098;2022-11-30T04:55:18;48.20;;;30.02;;
70825;SDS011;58446;41.490;22.098;2022-11-30T04:57:44;50.60;;;29.47;;
70825;SDS011;58446;41.490;22.098;2022-11-30T05:00:11;49.35;;;29.90;;
70825;SDS011;58446;41.490;22.098;2022-11-30T05:02:38;55.33;;;31.45;;
70825;SDS011;58446;41.490;22.098;2022-11-30T05:05:03;48.20;;;29.60;;
70825;SDS011;58446;41.490;22.098;2022-11-30T05:07:29;47.83;;;28.98;;
70825;SDS011;58446;41.490;22.098;2022-11-30T05:09:55;49.97;;;29.47;;
70825;SDS011;58446;41.490;22.098;2022-11-30T05:12:21;49.33;;;30.10;;
70825;SDS011;58446;41.490;22.098;2022-11-30T05:14:46;47.53;;;28.80;;
70825;SDS011;58446;41.490;22.098;2022-11-30T05:17:12;44.95;;;29.05;;
70825;SDS011;58446;41.490;22.098;2022-11-30T05:19:37;42.50;;;26.77;;
70825;SDS011;58446;41.490;22.098;2022-11-30T05:22:03;45.73;;;26.60;;
70825;SDS011;58446;41.490;22.098;2022-11-30T05:24:30;47.85;;;28.50;;
70825;SDS011;58446;41.490;22.098;2022-11-30T05:26:55;53.28;;;32.45;;
70825;SDS011;58446;41.490;22.098;2022-11-30T05:29:21;46.47;;;29.43;;
70825;SDS011;58446;41.490;22.098;2022-11-30T05:31:48;50.22;;;29.08;;
70825;SDS011;58446;41.490;22.098;2022-11-30T05:34:14;44.27;;;26.57;;
70825;SDS011;58446;41.490;22.098;2022-11-30T05:36:40;43.80;;;27.40;;
70825;SDS011;58446;41.490;22.098;2022-11-30T05:39:06;40.45;;;23.65;;
70825;SDS011;58446;41.490;22.098;2022-11-30T05:41:31;43.30;;;26.70;;
70825;SDS011;58446;41.490;22.098;2022-11-30T05:43:57;45.10;;;27.60;;
70825;SDS011;58446;41.490;22.098;2022-11-30T05:46:23;42.50;;;25.93;;
70825;SDS011;58446;41.490;22.098;2022-11-30T05:48:48;45.88;;;27.52;;
70825;SDS011;58446;41.490;22.098;2022-11-30T05:51:14;70.83;;;35.23;;
70825;SDS011;58446;41.490;22.098;2022-11-30T05:53:42;46.35;;;27.48;;
70825;SDS011;58446;41.490;22.098;2022-11-30T05:56:10;56.08;;;31.83;;
70825;SDS011;58446;41.490;22.098;2022-11-30T05:58:40;84.83;;;46.77;;
70825;SDS011;58446;41.490;22.098;2022-11-30T06:01:06;56.55;;;32.33;;
70825;SDS011;58446;41.490;22.098;2022-11-30T06:03:33;53.38;;;32.72;;
70825;SDS011;58446;41.490;22.098;2022-11-30T06:05:59;53.10;;;32.67;;
70825;SDS011;58446;41.490;22.098;2022-11-30T06:08:26;60.53;;;38.17;;
70825;SDS011;58446;41.490;22.098;2022-11-30T06:10:52;59.97;;;34.40;;
70825;SDS011;58446;41.490;22.098;2022-11-30T06:13:19;61.58;;;35.35;;
70825;SDS011;58446;41.490;22.098;2022-11-30T06:15:46;78.97;;;39.22;;
70825;SDS011;58446;41.490;22.098;2022-11-30T06:18:15;86.05;;;42.28;;
70825;SDS011;58446;41.490;22.098;2022-11-30T06:20:43;83.60;;;45.07;;
70825;SDS011;58446;41.490;22.098;2022-11-30T06:23:13;86.75;;;43.75;;
70825;SDS011;58446;41.490;22.098;2022-11-30T06:25:44;91.28;;;43.40;;
70825;SDS011;58446;41.490;22.098;2022-11-30T06:28:11;86.40;;;43.73;;
70825;SDS011;58446;41.490;22.098;2022-11-30T06:30:37;74.60;;;41.45;;
70825;SDS011;58446;41.490;22.098;2022-11-30T06:33:03;81.22;;;42.28;;
70825;SDS011;58446;41.490;22.098;2022-11-30T06:35:29;81.20;;;40.63;;
70825;SDS011;58446;41.490;22.098;2022-11-30T06:37:55;77.82;;;42.30;;
70825;SDS011;58446;41.490;22.098;2022-11-30T06:40:21;70.53;;;40.93;;
70825;SDS011;58446;41.490;22.098;2022-11-30T06:42:47;54.55;;;34.83;;
70825;SDS011;58446;41.490;22.098;2022-11-30T06:45:13;70.50;;;38.83;;
70825;SDS011;58446;41.490;22.098;2022-11-30T06:47:38;51.43;;;31.90;;
70825;SDS011;58446;41.490;22.098;2022-11-30T06:50:05;45.92;;;29.02;;
70825;SDS011;58446;41.490;22.098;2022-11-30T06:52:32;42.03;;;26.13;;
70825;SDS011;58446;41.490;22.098;2022-11-30T06:54:58;44.03;;;26.55;;
70825;SDS011;58446;41.490;22.098;2022-11-30T06:57:27;46.88;;;30.35;;
70825;SDS011;58446;41.490;22.098;2022-11-30T06:59:53;55.83;;;36.80;;
70825;SDS011;58446;41.490;22.098;2022-11-30T07:02:19;54.67;;;38.90;;
70825;SDS011;58446;41.490;22.098;2022-11-30T07:04:45;48.88;;;32.75;;
70825;SDS011;58446;41.490;22.098;2022-11-30T07:07:10;40.70;;;25.40;;
70825;SDS011;58446;41.490;22.098;2022-11-30T07:09:36;42.03;;;26.83;;
70825;SDS011;58446;41.490;22.098;2022-11-30T07:12:03;38.00;;;23.53;;
70825;SDS011;58446;41.490;22.098;2022-11-30T07:14:29;41.20;;;25.88;;
70825;SDS011;58446;41.490;22.098;2022-11-30T07:16:55;51.35;;;30.98;;
70825;SDS011;58446;41.490;22.098;2022-11-30T07:19:21;59.17;;;33.87;;
70825;SDS011;58446;41.490;22.098;2022-11-30T07:21:46;47.42;;;30.38;;
70825;SDS011;58446;41.490;22.098;2022-11-30T07:24:12;39.47;;;24.07;;
70825;SDS011;58446;41.490;22.098;2022-11-30T07:27:00;43.80;;;26.30;;
70825;SDS011;58446;41.490;22.098;2022-11-30T07:29:27;45.88;;;28.77;;
70825;SDS011;58446;41.490;22.098;2022-11-30T07:31:53;43.28;;;27.30;;
70825;SDS011;58446;41.490;22.098;2022-11-30T07:34:19;42.10;;;25.80;;
70825;SDS011;58446;41.490;22.098;2022-11-30T07:36:46;42.43;;;24.63;;
70825;SDS011;58446;41.490;22.098;2022-11-30T07:39:13;31.27;;;20.00;;
70825;SDS011;58446;41.490;22.098;2022-11-30T07:41:39;30.35;;;18.35;;
70825;SDS011;58446;41.490;22.098;2022-11-30T07:44:06;31.38;;;18.73;;
70825;SDS011;58446;41.490;22.098;2022-11-30T07:46:33;31.55;;;18.02;;
70825;SDS011;58446;41.490;22.098;2022-11-30T07:49:00;32.63;;;21.20;;
70825;SDS011;58446;41.490;22.098;2022-11-30T07:51:26;31.20;;;18.38;;
70825;SDS011;58446;41.490;22.098;2022-11-30T07:53:54;32.45;;;19.27;;
70825;SDS011;58446;41.490;22.098;2022-11-30T07:56:20;32.85;;;20.27;;
70825;SDS011;58446;41.490;22.098;2022-11-30T07:58:47;31.60;;;19.30;;
70825;SDS011;58446;41.490;22.098;2022-11-30T08:01:17;32.67;;;19.95;;
70825;SDS011;58446;41.490;22.098;2022-11-30T08:03:45;45.00;;;26.70;;
70825;SDS011;58446;41.490;22.098;2022-11-30T08:06:13;45.35;;;25.42;;
70825;SDS011;58446;41.490;22.098;2022-11-30T08:08:41;40.13;;;24.20;;
70825;SDS011;58446;41.490;22.098;2022-11-30T08:11:09;32.13;;;20.00;;
70825;SDS011;58446;41.490;22.098;2022-11-30T08:13:37;35.95;;;21.27;;
70825;SDS011;58446;41.490;22.098;2022-11-30T08:16:06;36.38;;;22.60;;
70825;SDS011;58446;41.490;22.098;2022-11-30T08:18:33;33.38;;;19.55;;
70825;SDS011;58446;41.490;22.098;2022-11-30T08:21:00;32.03;;;19.10;;
70825;SDS011;58446;41.490;22.098;2022-11-30T08:23:28;30.88;;;18.67;;
70825;SDS011;58446;41.490;22.098;2022-11-30T08:25:55;29.27;;;17.77;;
70825;SDS011;58446;41.490;22.098;2022-11-30T08:28:20;30.87;;;18.03;;
70825;SDS011;58446;41.490;22.098;2022-11-30T08:30:46;32.88;;;19.45;;
70825;SDS011;58446;41.490;22.098;2022-11-30T08:33:13;30.92;;;18.15;;
70825;SDS011;58446;41.490;22.098;2022-11-30T08:35:39;33.07;;;18.97;;
70825;SDS011;58446;41.490;22.098;2022-11-30T08:38:04;29.47;;;19.00;;
70825;SDS011;58446;41.490;22.098;2022-11-30T08:40:30;44.28;;;26.73;;
70825;SDS011;58446;41.490;22.098;2022-11-30T08:42:57;36.83;;;22.03;;
70825;SDS011;58446;41.490;22.098;2022-11-30T08:45:23;42.90;;;24.15;;
70825;SDS011;58446;41.490;22.098;2022-11-30T08:47:49;32.60;;;19.92;;
70825;SDS011;58446;41.490;22.098;2022-11-30T08:50:15;36.50;;;23.20;;
70825;SDS011;58446;41.490;22.098;2022-11-30T08:52:40;50.70;;;33.35;;
70825;SDS011;58446;41.490;22.098;2022-11-30T08:55:07;42.27;;;25.23;;
70825;SDS011;58446;41.490;22.098;2022-11-30T08:57:33;48.00;;;24.98;;
70825;SDS011;58446;41.490;22.098;2022-11-30T08:59:59;30.90;;;18.80;;
70825;SDS011;58446;41.490;22.098;2022-11-30T09:02:25;34.72;;;20.92;;
70825;SDS011;58446;41.490;22.098;2022-11-30T09:04:51;30.27;;;17.27;;
70825;SDS011;58446;41.490;22.098;2022-11-30T09:07:17;30.33;;;18.48;;
70825;SDS011;58446;41.490;22.098;2022-11-30T09:09:43;27.35;;;16.90;;
70825;SDS011;58446;41.490;22.098;2022-11-30T09:12:09;47.80;;;27.63;;
70825;SDS011;58446;41.490;22.098;2022-11-30T09:14:35;40.93;;;24.10;;
70825;SDS011;58446;41.490;22.098;2022-11-30T09:17:01;59.92;;;31.65;;
70825;SDS011;58446;41.490;22.098;2022-11-30T09:19:26;37.73;;;22.97;;
70825;SDS011;58446;41.490;22.098;2022-11-30T09:21:53;42.38;;;25.17;;
70825;SDS011;58446;41.490;22.098;2022-11-30T09:24:19;31.67;;;17.60;;
70825;SDS011;58446;41.490;22.098;2022-11-30T09:26:45;35.08;;;21.60;;
70825;SDS011;58446;41.490;22.098;2022-11-30T09:29:10;61.22;;;33.45;;
70825;SDS011;58446;41.490;22.098;2022-11-30T09:31:36;50.83;;;29.67;;
70825;SDS011;58446;41.490;22.098;2022-11-30T09:34:02;40.75;;;24.10;;
70825;SDS011;58446;41.490;22.098;2022-11-30T09:36:27;60.23;;;32.27;;
70825;SDS011;58446;41.490;22.098;2022-11-30T09:38:54;103.70;;;64.30;;
70825;SDS011;58446;41.490;22.098;2022-11-30T09:46:32;47.47;;;27.83;;
70825;SDS011;58446;41.490;22.098;2022-11-30T09:49:17;46.17;;;27.23;;
70825;SDS011;58446;41.490;22.098;2022-11-30T09:51:51;37.22;;;21.73;;
70825;SDS011;58446;41.490;22.098;2022-11-30T09:59:54;34.37;;;21.10;;
70825;SDS011;58446;41.490;22.098;2022-11-30T10:02:26;35.53;;;19.55;;
70825;SDS011;58446;41.490;22.098;2022-11-30T10:04:54;38.08;;;22.42;;
70825;SDS011;58446;41.490;22.098;2022-11-30T10:07:31;35.92;;;23.10;;
70825;SDS011;58446;41.490;22.098;2022-11-30T10:10:26;37.22;;;23.15;;
70825;SDS011;58446;41.490;22.098;2022-11-30T10:13:06;35.70;;;21.33;;
70825;SDS011;58446;41.490;22.098;2022-11-30T10:15:56;35.50;;;20.08;;
70825;SDS011;58446;41.490;22.098;2022-11-30T10:21:22;31.17;;;19.15;;
70825;SDS011;58446;41.490;22.098;2022-11-30T10:26:55;33.60;;;19.33;;
70825;SDS011;58446;41.490;22.098;2022-11-30T10:29:30;30.83;;;18.60;;
70825;SDS011;58446;41.490;22.098;2022-11-30T10:31:57;28.27;;;17.48;;
70825;SDS011;58446;41.490;22.098;2022-11-30T10:34:34;34.08;;;19.80;;
70825;SDS011;58446;41.490;22.098;2022-11-30T10:37:05;33.08;;;19.45;;
70825;SDS011;58446;41.490;22.098;2022-11-30T10:40:22;32.17;;;18.23;;
70825;SDS011;58446;41.490;22.098;2022-11-30T10:45:04;29.73;;;18.10;;
70825;SDS011;58446;41.490;22.098;2022-11-30T10:47:33;30.33;;;17.48;;
70825;SDS011;58446;41.490;22.098;2022-11-30T10:50:01;29.30;;;18.20;;
70825;SDS011;58446;41.490;22.098;2022-11-30T10:52:34;30.53;;;18.90;;
70825;SDS011;58446;41.490;22.098;2022-11-30T10:55:11;32.20;;;18.90;;
70825;SDS011;58446;41.490;22.098;2022-11-30T10:57:46;27.10;;;17.00;;
70825;SDS011;58446;41.490;22.098;2022-11-30T11:00:15;28.20;;;17.77;;
70825;SDS011;58446;41.490;22.098;2022-11-30T11:02:46;29.95;;;18.52;;
70825;SDS011;58446;41.490;22.098;2022-11-30T11:10:23;34.22;;;20.50;;
70825;SDS011;58446;41.490;22.098;2022-11-30T11:12:58;33.20;;;20.42;;
70825;SDS011;58446;41.490;22.098;2022-11-30T11:15:25;38.67;;;23.97;;
70825;SDS011;58446;41.490;22.098;2022-11-30T11:17:53;32.50;;;19.88;;
70825;SDS011;58446;41.490;22.098;2022-11-30T11:20:38;34.40;;;20.55;;
70825;SDS011;58446;41.490;22.098;2022-11-30T11:23:26;30.30;;;19.67;;
70825;SDS011;58446;41.490;22.098;2022-11-30T11:26:01;33.63;;;19.27;;
70825;SDS011;58446;41.490;22.098;2022-11-30T11:28:29;31.27;;;20.23;;
70825;SDS011;58446;41.490;22.098;2022-11-30T11:30:56;32.58;;;21.08;;
70825;SDS011;58446;41.490;22.098;2022-11-30T11:33:23;33.80;;;20.33;;
70825;SDS011;58446;41.490;22.098;2022-11-30T11:38:44;44.90;;;26.13;;
70825;SDS011;58446;41.490;22.098;2022-11-30T11:46:27;36.25;;;22.35;;
70825;SDS011;58446;41.490;22.098;2022-11-30T11:49:06;34.90;;;21.10;;
70825;SDS011;58446;41.490;22.098;2022-11-30T11:51:45;33.07;;;19.67;;
70825;SDS011;58446;41.490;22.098;2022-11-30T11:54:19;38.92;;;21.90;;
70825;SDS011;58446;41.490;22.098;2022-11-30T11:56:48;32.45;;;20.98;;
70825;SDS011;58446;41.490;22.098;2022-11-30T12:04:47;31.47;;;19.37;;
70825;SDS011;58446;41.490;22.098;2022-11-30T12:09:56;33.65;;;20.10;;
70825;SDS011;58446;41.490;22.098;2022-11-30T12:12:30;29.40;;;19.05;;
70825;SDS011;58446;41.490;22.098;2022-11-30T12:14:56;33.65;;;20.60;;
70825;SDS011;58446;41.490;22.098;2022-11-30T12:17:34;32.17;;;19.90;;
70825;SDS011;58446;41.490;22.098;2022-11-30T12:22:50;34.80;;;21.88;;
70825;SDS011;58446;41.490;22.098;2022-11-30T12:25:29;32.70;;;20.00;;
70825;SDS011;58446;41.490;22.098;2022-11-30T12:28:04;34.20;;;20.07;;
70825;SDS011;58446;41.490;22.098;2022-11-30T12:33:19;34.22;;;20.92;;
70825;SDS011;58446;41.490;22.098;2022-11-30T12:38:37;34.38;;;21.33;;
70825;SDS011;58446;41.490;22.098;2022-11-30T12:44:32;34.28;;;21.20;;
70825;SDS011;58446;41.490;22.098;2022-11-30T12:50:20;35.42;;;19.45;;
70825;SDS011;58446;41.490;22.098;2022-11-30T12:53:08;35.58;;;21.27;;
70825;SDS011;58446;41.490;22.098;2022-11-30T12:58:48;34.72;;;21.42;;
70825;SDS011;58446;41.490;22.098;2022-11-30T13:01:43;33.60;;;19.00;;
70825;SDS011;58446;41.490;22.098;2022-11-30T13:06:59;33.38;;;19.63;;
70825;SDS011;58446;41.490;22.098;2022-11-30T13:12:02;31.02;;;19.58;;
70825;SDS011;58446;41.490;22.098;2022-11-30T13:14:35;34.40;;;19.25;;
70825;SDS011;58446;41.490;22.098;2022-11-30T13:17:09;34.70;;;19.35;;
70825;SDS011;58446;41.490;22.098;2022-11-30T13:28:11;31.33;;;18.05;;
70825;SDS011;58446;41.490;22.098;2022-11-30T13:35:58;30.10;;;18.00;;
70825;SDS011;58446;41.490;22.098;2022-11-30T13:38:24;35.53;;;19.58;;
70825;SDS011;58446;41.490;22.098;2022-11-30T13:43:20;41.80;;;23.52;;
70825;SDS011;58446;41.490;22.098;2022-11-30T13:45:47;92.90;;;51.95;;
70825;SDS011;58446;41.490;22.098;2022-11-30T13:48:17;76.87;;;45.10;;
70825;SDS011;58446;41.490;22.098;2022-11-30T13:51:03;89.45;;;49.13;;
70825;SDS011;58446;41.490;22.098;2022-11-30T13:53:30;71.55;;;42.80;;
70825;SDS011;58446;41.490;22.098;2022-11-30T14:01:47;64.90;;;36.70;;
70825;SDS011;58446;41.490;22.098;2022-11-30T14:06:47;53.60;;;31.83;;
70825;SDS011;58446;41.490;22.098;2022-11-30T14:09:15;53.42;;;31.02;;
70825;SDS011;58446;41.490;22.098;2022-11-30T14:15:03;56.78;;;32.45;;
70825;SDS011;58446;41.490;22.098;2022-11-30T14:26:23;47.42;;;29.10;;
70825;SDS011;58446;41.490;22.098;2022-11-30T14:28:56;43.92;;;26.50;;
70825;SDS011;58446;41.490;22.098;2022-11-30T14:31:27;47.53;;;29.00;;
70825;SDS011;58446;41.490;22.098;2022-11-30T14:36:33;46.15;;;28.17;;
70825;SDS011;58446;41.490;22.098;2022-11-30T14:39:03;49.13;;;28.38;;
70825;SDS011;58446;41.490;22.098;2022-11-30T14:41:29;45.03;;;26.00;;
70825;SDS011;58446;41.490;22.098;2022-11-30T14:44:03;43.20;;;26.17;;
70825;SDS011;58446;41.490;22.098;2022-11-30T14:46:34;43.57;;;26.63;;
70825;SDS011;58446;41.490;22.098;2022-11-30T14:49:19;45.58;;;26.85;;
70825;SDS011;58446;41.490;22.098;2022-11-30T14:51:51;45.35;;;27.63;;
70825;SDS011;58446;41.490;22.098;2022-11-30T14:54:21;42.03;;;26.63;;
70825;SDS011;58446;41.490;22.098;2022-11-30T14:57:13;44.42;;;27.23;;
70825;SDS011;58446;41.490;22.098;2022-11-30T14:59:49;41.47;;;26.13;;
70825;SDS011;58446;41.490;22.098;2022-11-30T15:02:31;43.38;;;26.58;;
70825;SDS011;58446;41.490;22.098;2022-11-30T15:05:01;39.10;;;24.45;;
70825;SDS011;58446;41.490;22.098;2022-11-30T15:07:31;41.97;;;23.27;;
70825;SDS011;58446;41.490;22.098;2022-11-30T15:10:03;39.75;;;22.83;;
70825;SDS011;58446;41.490;22.098;2022-11-30T15:12:33;40.85;;;24.40;;
70825;SDS011;58446;41.490;22.098;2022-11-30T15:15:21;39.15;;;24.52;;
70825;SDS011;58446;41.490;22.098;2022-11-30T15:17:56;44.03;;;25.25;;
70825;SDS011;58446;41.490;22.098;2022-11-30T15:20:40;39.23;;;23.03;;
70825;SDS011;58446;41.490;22.098;2022-11-30T15:23:13;46.10;;;23.60;;
70825;SDS011;58446;41.490;22.098;2022-11-30T15:25:44;40.38;;;22.40;;
70825;SDS011;58446;41.490;22.098;2022-11-30T15:28:14;35.65;;;22.15;;
70825;SDS011;58446;41.490;22.098;2022-11-30T15:30:45;36.20;;;21.40;;
70825;SDS011;58446;41.490;22.098;2022-11-30T15:33:16;43.30;;;24.20;;
70825;SDS011;58446;41.490;22.098;2022-11-30T15:35:45;48.13;;;26.02;;
70825;SDS011;58446;41.490;22.098;2022-11-30T15:38:29;43.13;;;25.45;;
70825;SDS011;58446;41.490;22.098;2022-11-30T15:41:02;42.13;;;22.65;;
70825;SDS011;58446;41.490;22.098;2022-11-30T15:43:33;48.15;;;26.20;;
70825;SDS011;58446;41.490;22.098;2022-11-30T15:46:01;51.57;;;29.87;;
70825;SDS011;58446;41.490;22.098;2022-11-30T15:48:29;49.15;;;27.25;;
70825;SDS011;58446;41.490;22.098;2022-11-30T15:51:04;42.65;;;23.65;;
70825;SDS011;58446;41.490;22.098;2022-11-30T15:53:32;40.47;;;21.85;;
70825;SDS011;58446;41.490;22.098;2022-11-30T15:56:01;38.45;;;22.02;;
70825;SDS011;58446;41.490;22.098;2022-11-30T15:58:36;35.83;;;20.60;;
70825;SDS011;58446;41.490;22.098;2022-11-30T16:03:57;39.88;;;21.75;;
70825;SDS011;58446;41.490;22.098;2022-11-30T16:06:35;54.55;;;32.03;;
70825;SDS011;58446;41.490;22.098;2022-11-30T16:09:03;45.42;;;26.52;;
70825;SDS011;58446;41.490;22.098;2022-11-30T16:11:41;44.57;;;27.17;;
70825;SDS011;58446;41.490;22.098;2022-11-30T16:14:07;41.80;;;22.65;;
70825;SDS011;58446;41.490;22.098;2022-11-30T16:16:38;43.55;;;24.80;;
70825;SDS011;58446;41.490;22.098;2022-11-30T16:19:04;39.55;;;21.60;;